Time;durP1;ratioP1;P1;durP2;ratioP2;P2;SDS_P1;SDS_P2;PMS_P1;PMS_P2;Temp;Humidity;BMP_temperature;BMP_pressure;BME280_temperature;BME280_humidity;BME280_pressure;Samples;Min_cycle;Max_cycle;Signal;HPM_P1;HPM_P2
2023/01/15 00:01:20;;;;;;;57.37;2.30;;;;;;;;;;5071650;28;20439;-70
2023/01/15 00:03:49;;;;;;;57.30;2.27;;;;;;;;;;5072198;28;20469;-70
2023/01/15 00:06:16;;;;;;;57.80;2.27;;;;;;;;;;5071982;28;20451;-69
2023/01/15 00:08:43;;;;;;;57.07;2.33;;;;;;;;;;5071401;28;20482;-70
2023/01/15 00:11:10;;;;;;;57.70;2.80;;;;;;;;;;5071747;28;20491;-69
2023/01/15 00:13:37;;;;;;;57.30;2.40;;;;;;;;;;5071822;28;20471;-70
2023/01/15 00:16:05;;;;;;;57.40;2.40;;;;;;;;;;5071599;28;20443;-69
2023/01/15 00:18:32;;;;;;;57.80;2.40;;;;;;;;;;5071116;28;21026;-69
2023/01/15 00:21:01;;;;;;;57.17;2.30;;;;;;;;;;5071886;28;20853;-68
2023/01/15 00:28:59;;;;;;;58.07;2.57;;;;;;;;;;5070998;28;20419;-69
2023/01/15 00:31:26;;;;;;;56.97;2.20;;;;;;;;;;5071523;28;21026;-70
2023/01/15 00:33:53;;;;;;;57.20;2.30;;;;;;;;;;5071703;28;20459;-70
2023/01/15 00:36:21;;;;;;;59.20;2.57;;;;;;;;;;5071439;28;20961;-69
2023/01/15 00:38:49;;;;;;;57.40;2.50;;;;;;;;;;5070627;28;20458;-69
2023/01/15 00:41:16;;;;;;;57.30;2.30;;;;;;;;;;5071441;28;20450;-69
2023/01/15 00:43:43;;;;;;;59.90;2.50;;;;;;;;;;5071549;28;20459;-69
2023/01/15 00:46:10;;;;;;;57.00;2.50;;;;;;;;;;5071604;28;20447;-69
2023/01/15 00:48:38;;;;;;;57.27;2.50;;;;;;;;;;5070609;28;20458;-70
2023/01/15 00:51:05;;;;;;;58.20;2.50;;;;;;;;;;5075174;28;20580;-69
2023/01/15 00:53:34;;;;;;;57.80;2.27;;;;;;;;;;5075240;28;20835;-70
2023/01/15 00:56:01;;;;;;;57.30;2.47;;;;;;;;;;5075333;28;20457;-70
2023/01/15 00:58:28;;;;;;;57.27;2.43;;;;;;;;;;5075160;28;20449;-70
2023/01/15 01:00:55;;;;;;;56.93;2.30;;;;;;;;;;5074788;28;20902;-69
2023/01/15 01:03:22;;;;;;;58.03;2.70;;;;;;;;;;5075234;28;20470;-69
2023/01/15 01:05:50;;;;;;;57.27;2.10;;;;;;;;;;5075104;28;20443;-69
2023/01/15 01:08:17;;;;;;;57.40;2.40;;;;;;;;;;5075125;28;20820;-70
2023/01/15 01:10:46;;;;;;;57.40;2.20;;;;;;;;;;5074203;28;20483;-69
2023/01/15 01:13:13;;;;;;;57.90;2.33;;;;;;;;;;5075016;28;20471;-69
2023/01/15 01:15:40;;;;;;;56.97;2.17;;;;;;;;;;5075024;28;20824;-69
2023/01/15 01:18:07;;;;;;;57.97;2.20;;;;;;;;;;5074882;28;20447;-69
2023/01/15 01:20:35;;;;;;;56.93;2.10;;;;;;;;;;5074051;28;20550;-69
2023/01/15 01:23:02;;;;;;;57.47;2.67;;;;;;;;;;5075215;28;20835;-70
2023/01/15 01:25:29;;;;;;;57.20;2.20;;;;;;;;;;5074785;28;20459;-69
2023/01/15 01:27:57;;;;;;;57.73;2.77;;;;;;;;;;5074689;28;20443;-69
2023/01/15 01:30:24;;;;;;;57.83;2.33;;;;;;;;;;5073984;28;20494;-69
2023/01/15 01:32:51;;;;;;;57.43;2.40;;;;;;;;;;5074570;28;20474;-69
2023/01/15 01:35:18;;;;;;;57.50;2.20;;;;;;;;;;5074530;28;20447;-69
2023/01/15 01:37:49;;;;;;;57.03;2.30;;;;;;;;;;5074792;28;20447;-70
2023/01/15 01:40:16;;;;;;;57.00;1.97;;;;;;;;;;5073850;28;20450;-69
2023/01/15 01:42:44;;;;;;;58.00;2.80;;;;;;;;;;5074291;28;20471;-69
2023/01/15 01:45:24;;;;;;;57.47;2.30;;;;;;;;;;5074434;28;20820;-69
2023/01/15 01:47:52;;;;;;;56.97;2.30;;;;;;;;;;5074494;28;20451;-69
2023/01/15 01:50:19;;;;;;;56.97;2.20;;;;;;;;;;5073484;28;20502;-70
2023/01/15 01:52:49;;;;;;;57.20;2.10;;;;;;;;;;5074304;28;20467;-70
2023/01/15 01:55:18;;;;;;;56.90;2.20;;;;;;;;;;5074283;28;20455;-69
2023/01/15 01:57:47;;;;;;;58.40;2.43;;;;;;;;;;5074212;28;20443;-70
2023/01/15 02:00:15;;;;;;;57.40;2.17;;;;;;;;;;5072651;28;20461;-71
2023/01/15 02:02:44;;;;;;;56.97;1.97;;;;;;;;;;5074237;28;20464;-70
2023/01/15 02:05:14;;;;;;;56.90;2.00;;;;;;;;;;5074242;28;20452;-70
2023/01/15 02:07:41;;;;;;;57.07;2.10;;;;;;;;;;5074132;28;20447;-71
2023/01/15 02:10:13;;;;;;;57.07;2.43;;;;;;;;;;5073090;28;20479;-70
2023/01/15 02:12:41;;;;;;;57.10;2.00;;;;;;;;;;5073735;28;20471;-70
2023/01/15 02:15:12;;;;;;;57.40;2.30;;;;;;;;;;5074103;28;20450;-71
2023/01/15 02:17:43;;;;;;;57.17;2.30;;;;;;;;;;5073795;28;20954;-70
2023/01/15 02:20:27;;;;;;;57.50;2.10;;;;;;;;;;5073138;28;20499;-70
2023/01/15 02:23:10;;;;;;;57.60;2.30;;;;;;;;;;5072306;28;20493;-70
2023/01/15 02:25:44;;;;;;;57.03;2.07;;;;;;;;;;5073699;28;20455;-71
2023/01/15 02:28:16;;;;;;;57.10;1.90;;;;;;;;;;5073698;28;20447;-70
2023/01/15 02:30:45;;;;;;;57.07;2.20;;;;;;;;;;5072846;28;21025;-69
2023/01/15 02:33:15;;;;;;;57.07;2.00;;;;;;;;;;5073529;28;20474;-70
2023/01/15 02:35:44;;;;;;;57.50;2.00;;;;;;;;;;5073629;28;20466;-70
2023/01/15 02:38:12;;;;;;;56.87;2.10;;;;;;;;;;5073554;28;20458;-70
2023/01/15 02:40:39;;;;;;;57.73;2.13;;;;;;;;;;5068701;28;20443;-70
2023/01/15 02:43:07;;;;;;;57.33;2.20;;;;;;;;;;5073402;28;20474;-70
2023/01/15 02:45:36;;;;;;;57.17;2.20;;;;;;;;;;5073221;28;20924;-69
2023/01/15 02:48:06;;;;;;;57.30;2.20;;;;;;;;;;5073252;28;20447;-70
2023/01/15 02:50:37;;;;;;;57.20;2.30;;;;;;;;;;5072480;28;20475;-70
2023/01/15 02:53:08;;;;;;;56.97;2.03;;;;;;;;;;5073209;28;20475;-70
2023/01/15 02:55:37;;;;;;;57.40;2.20;;;;;;;;;;5073134;28;20530;-69
2023/01/15 02:58:06;;;;;;;56.80;2.27;;;;;;;;;;5073160;28;20822;-71
2023/01/15 03:00:35;;;;;;;56.90;2.00;;;;;;;;;;5072399;28;20439;-70
2023/01/15 03:03:08;;;;;;;57.10;2.20;;;;;;;;;;5072983;28;20467;-71
2023/01/15 03:05:39;;;;;;;57.40;2.43;;;;;;;;;;5072988;28;20465;-70
2023/01/15 03:08:08;;;;;;;57.40;2.20;;;;;;;;;;5072921;28;20451;-70
2023/01/15 03:10:39;;;;;;;58.83;2.27;;;;;;;;;;5072273;28;20485;-70
2023/01/15 03:13:07;;;;;;;57.30;2.27;;;;;;;;;;5072085;28;20471;-70
2023/01/15 03:18:28;;;;;;;59.07;2.40;;;;;;;;;;5072610;28;21151;-69
2023/01/15 03:20:57;;;;;;;56.97;2.50;;;;;;;;;;5072131;28;20450;-70
2023/01/15 03:23:26;;;;;;;57.27;2.30;;;;;;;;;;5072575;28;20474;-69
2023/01/15 03:25:53;;;;;;;57.30;2.43;;;;;;;;;;5072460;28;20557;-70
2023/01/15 03:28:23;;;;;;;57.40;2.30;;;;;;;;;;5072409;28;20453;-69
2023/01/15 03:30:51;;;;;;;56.97;2.30;;;;;;;;;;5071607;28;20574;-69
2023/01/15 03:33:18;;;;;;;57.00;2.50;;;;;;;;;;5072143;28;20471;-70
2023/01/15 03:35:49;;;;;;;57.53;2.30;;;;;;;;;;5072445;28;20959;-70
2023/01/15 03:38:18;;;;;;;62.60;2.83;;;;;;;;;;5072571;28;20457;-69
2023/01/15 03:40:49;;;;;;;57.50;2.50;;;;;;;;;;5071627;28;20444;-71
2023/01/15 03:46:03;;;;;;;57.47;2.30;;;;;;;;;;5072421;28;20919;-70
2023/01/15 03:48:34;;;;;;;57.20;2.37;;;;;;;;;;5072032;28;20451;-70
2023/01/15 03:51:06;;;;;;;57.00;2.27;;;;;;;;;;5072060;28;20487;-70
2023/01/15 03:53:38;;;;;;;57.30;2.40;;;;;;;;;;5071985;28;20483;-71
2023/01/15 03:56:07;;;;;;;57.50;2.00;;;;;;;;;;5071909;28;20447;-70
2023/01/15 03:58:39;;;;;;;57.17;2.23;;;;;;;;;;5071274;28;20462;-70
2023/01/15 04:01:08;;;;;;;57.60;2.30;;;;;;;;;;5071916;28;20939;-70
2023/01/15 04:03:36;;;;;;;56.80;2.20;;;;;;;;;;5071743;28;21003;-69
2023/01/15 04:06:05;;;;;;;57.00;2.30;;;;;;;;;;5071985;28;20449;-70
2023/01/15 04:08:34;;;;;;;57.23;2.30;;;;;;;;;;5071331;28;20448;-70
2023/01/15 04:11:01;;;;;;;57.07;2.17;;;;;;;;;;5071686;28;20485;-70
2023/01/15 04:13:29;;;;;;;57.30;2.00;;;;;;;;;;5071842;28;20473;-70
2023/01/15 04:15:56;;;;;;;57.33;2.30;;;;;;;;;;5071773;28;20451;-70
2023/01/15 04:18:23;;;;;;;59.30;2.07;;;;;;;;;;5071591;28;20456;-70
2023/01/15 04:20:50;;;;;;;57.27;2.53;;;;;;;;;;5070886;28;20958;-70
2023/01/15 04:23:19;;;;;;;56.87;2.23;;;;;;;;;;5071376;28;20470;-70
2023/01/15 04:25:46;;;;;;;56.87;2.20;;;;;;;;;;5071626;28;20776;-69
2023/01/15 04:28:13;;;;;;;57.10;2.20;;;;;;;;;;5071718;28;20449;-70
2023/01/15 04:30:42;;;;;;;57.00;2.10;;;;;;;;;;5070830;28;20451;-70
2023/01/15 04:33:09;;;;;;;57.07;2.00;;;;;;;;;;5071503;28;20483;-70
2023/01/15 04:35:38;;;;;;;57.00;2.07;;;;;;;;;;5071482;28;20454;-70
2023/01/15 04:38:05;;;;;;;57.37;2.00;;;;;;;;;;5071350;28;20458;-70
2023/01/15 04:46:03;;;;;;;57.07;2.13;;;;;;;;;;5071422;28;20418;-70
2023/01/15 04:48:30;;;;;;;56.80;2.03;;;;;;;;;;5071079;28;20451;-70
2023/01/15 04:50:57;;;;;;;57.00;2.10;;;;;;;;;;5071356;28;20479;-70
2023/01/15 04:53:26;;;;;;;57.40;2.30;;;;;;;;;;5071766;28;20474;-70
2023/01/15 04:56:00;;;;;;;57.03;2.20;;;;;;;;;;5071508;28;20447;-70
2023/01/15 04:58:27;;;;;;;57.67;2.30;;;;;;;;;;5071261;28;20453;-70
2023/01/15 05:00:54;;;;;;;57.20;2.40;;;;;;;;;;5071190;28;20819;-70
2023/01/15 05:03:21;;;;;;;57.00;2.10;;;;;;;;;;5071339;28;20471;-70
2023/01/15 05:05:49;;;;;;;57.10;2.10;;;;;;;;;;5071378;28;20443;-70
2023/01/15 05:08:16;;;;;;;58.90;2.20;;;;;;;;;;5071287;28;20456;-70
2023/01/15 05:10:43;;;;;;;57.10;2.27;;;;;;;;;;5070428;28;20451;-70
2023/01/15 05:13:12;;;;;;;56.77;2.10;;;;;;;;;;5071244;28;20471;-70
2023/01/15 05:15:41;;;;;;;56.87;2.10;;;;;;;;;;5071485;28;20473;-70
2023/01/15 05:18:08;;;;;;;57.03;2.20;;;;;;;;;;5071262;28;20451;-70
2023/01/15 05:20:36;;;;;;;57.07;2.20;;;;;;;;;;5070677;28;20448;-70
2023/01/15 05:23:04;;;;;;;57.03;2.17;;;;;;;;;;5071090;28;20473;-69
2023/01/15 05:25:31;;;;;;;57.10;2.30;;;;;;;;;;5071026;28;20463;-69
2023/01/15 05:27:58;;;;;;;57.20;2.27;;;;;;;;;;5071285;28;20453;-68
2023/01/15 05:30:26;;;;;;;59.33;2.40;;;;;;;;;;5070292;28;20444;-69
2023/01/15 05:32:53;;;;;;;57.40;2.33;;;;;;;;;;5070883;28;20491;-69
2023/01/15 05:35:20;;;;;;;58.10;2.30;;;;;;;;;;5072005;28;20443;-69
2023/01/15 05:37:47;;;;;;;57.13;2.20;;;;;;;;;;5074617;28;20819;-69
2023/01/15 05:40:15;;;;;;;57.07;2.20;;;;;;;;;;5073663;28;20458;-69
2023/01/15 05:42:42;;;;;;;57.20;2.40;;;;;;;;;;5074584;28;20473;-69
2023/01/15 05:45:09;;;;;;;57.20;2.27;;;;;;;;;;5074406;28;20952;-69
2023/01/15 05:47:38;;;;;;;57.13;2.30;;;;;;;;;;5074505;28;20459;-69
2023/01/15 05:50:05;;;;;;;57.47;2.40;;;;;;;;;;5073645;28;20440;-69
2023/01/15 05:52:32;;;;;;;57.13;2.30;;;;;;;;;;5074204;28;20667;-69
2023/01/15 05:54:59;;;;;;;57.23;2.40;;;;;;;;;;5074245;28;20817;-69
2023/01/15 05:57:27;;;;;;;57.20;2.50;;;;;;;;;;5074499;28;20443;-69
2023/01/15 05:59:55;;;;;;;56.97;2.37;;;;;;;;;;5073502;28;20451;-69
2023/01/15 06:02:22;;;;;;;56.87;2.50;;;;;;;;;;5074286;28;20467;-69
2023/01/15 06:04:50;;;;;;;58.03;2.70;;;;;;;;;;5074053;28;20964;-69
2023/01/15 06:07:17;;;;;;;59.37;2.50;;;;;;;;;;5073898;28;20453;-69
2023/01/15 06:09:45;;;;;;;60.80;2.40;;;;;;;;;;5073359;28;20444;-69
2023/01/15 06:12:12;;;;;;;57.37;2.47;;;;;;;;;;5073813;28;20578;-69
2023/01/15 06:14:39;;;;;;;57.47;2.30;;;;;;;;;;5074149;28;20443;-69
2023/01/15 06:17:06;;;;;;;58.23;2.50;;;;;;;;;;5073806;28;20955;-69
2023/01/15 06:19:33;;;;;;;58.20;2.67;;;;;;;;;;5073144;28;20447;-69
2023/01/15 06:22:02;;;;;;;58.57;2.90;;;;;;;;;;5073570;28;20464;-69
2023/01/15 06:24:29;;;;;;;58.10;2.67;;;;;;;;;;5073713;28;20546;-69
2023/01/15 06:26:57;;;;;;;57.07;2.70;;;;;;;;;;5073668;28;20486;-69
2023/01/15 06:29:25;;;;;;;57.40;2.50;;;;;;;;;;5073289;28;20823;-69
2023/01/15 06:31:52;;;;;;;57.90;2.90;;;;;;;;;;5073466;28;20491;-69
2023/01/15 06:34:19;;;;;;;57.37;2.83;;;;;;;;;;5073478;28;20450;-69
2023/01/15 06:36:46;;;;;;;59.00;3.10;;;;;;;;;;5073569;28;20936;-69
2023/01/15 06:39:15;;;;;;;58.00;3.10;;;;;;;;;;5072921;28;20448;-69
2023/01/15 06:47:23;;;;;;;57.50;2.83;;;;;;;;;;5073335;28;20423;-69
2023/01/15 06:49:50;;;;;;;57.80;3.10;;;;;;;;;;5072651;28;20447;-69
2023/01/15 06:52:17;;;;;;;57.47;2.40;;;;;;;;;;5072797;28;20491;-69
2023/01/15 06:54:46;;;;;;;57.30;2.53;;;;;;;;;;5073379;28;20948;-69
2023/01/15 06:57:13;;;;;;;57.37;2.40;;;;;;;;;;5073204;28;20462;-69
2023/01/15 06:59:40;;;;;;;57.10;2.33;;;;;;;;;;5072246;28;20447;-69
2023/01/15 07:02:07;;;;;;;57.17;2.40;;;;;;;;;;5073118;28;20470;-69
2023/01/15 07:04:34;;;;;;;57.40;2.60;;;;;;;;;;5073012;28;20458;-69
2023/01/15 07:07:01;;;;;;;57.33;2.50;;;;;;;;;;5072907;28;20509;-69
2023/01/15 07:09:29;;;;;;;57.47;2.60;;;;;;;;;;5072127;28;20481;-69
2023/01/15 07:11:58;;;;;;;58.00;2.83;;;;;;;;;;5072515;28;20883;-69
2023/01/15 07:14:26;;;;;;;57.40;2.73;;;;;;;;;;5072712;28;20453;-69
2023/01/15 07:16:54;;;;;;;57.87;2.90;;;;;;;;;;5072900;28;20447;-69
2023/01/15 07:19:21;;;;;;;56.97;2.70;;;;;;;;;;5071886;28;20448;-69
2023/01/15 07:21:48;;;;;;;58.87;2.93;;;;;;;;;;5072569;28;20460;-69
2023/01/15 07:24:15;;;;;;;57.80;2.90;;;;;;;;;;5072362;28;20812;-69
2023/01/15 07:26:44;;;;;;;57.17;2.63;;;;;;;;;;5073003;28;20443;-68
2023/01/15 07:29:13;;;;;;;57.07;2.20;;;;;;;;;;5071904;28;20451;-68
2023/01/15 07:31:40;;;;;;;57.27;2.63;;;;;;;;;;5072347;28;20462;-68
2023/01/15 07:34:07;;;;;;;57.07;2.57;;;;;;;;;;5072366;28;20455;-68
2023/01/15 07:36:34;;;;;;;57.07;2.40;;;;;;;;;;5072580;28;20542;-68
2023/01/15 07:39:03;;;;;;;57.00;2.30;;;;;;;;;;5071492;28;20447;-68
2023/01/15 07:50:02;;;;;;;58.60;3.43;;;;;;;;;;5071423;28;20489;-68
2023/01/15 07:52:29;;;;;;;56.87;2.43;;;;;;;;;;5072027;28;20498;-68
2023/01/15 07:54:56;;;;;;;56.97;2.60;;;;;;;;;;5072006;28;20454;-68
2023/01/15 07:57:23;;;;;;;58.10;2.80;;;;;;;;;;5072230;28;20825;-68
2023/01/15 07:59:52;;;;;;;57.50;2.67;;;;;;;;;;5070640;28;20466;-69
2023/01/15 08:02:19;;;;;;;61.20;3.13;;;;;;;;;;5072017;28;21014;-69
2023/01/15 08:04:47;;;;;;;59.10;4.47;;;;;;;;;;5071999;28;20213;-69
2023/01/15 08:07:14;;;;;;;58.47;4.00;;;;;;;;;;5072478;28;20452;-69
2023/01/15 08:09:41;;;;;;;57.83;2.97;;;;;;;;;;5071289;28;20811;-69
2023/01/15 08:15:13;;;;;;;56.60;2.50;;;;;;;;;;5071941;28;20800;-69
2023/01/15 08:17:40;;;;;;;57.67;2.70;;;;;;;;;;5071834;28;20458;-69
2023/01/15 08:20:09;;;;;;;57.37;2.80;;;;;;;;;;5067087;28;20923;-69
2023/01/15 08:22:37;;;;;;;57.70;2.80;;;;;;;;;;5050151;28;20475;-69
2023/01/15 08:25:04;;;;;;;59.10;3.10;;;;;;;;;;5050216;28;20463;-69
2023/01/15 08:27:32;;;;;;;57.70;2.87;;;;;;;;;;5051686;28;20452;-69
2023/01/15 08:30:00;;;;;;;57.37;2.70;;;;;;;;;;5051058;28;20448;-69
2023/01/15 08:32:27;;;;;;;56.87;2.33;;;;;;;;;;5051436;28;20511;-69
2023/01/15 08:34:54;;;;;;;57.17;2.60;;;;;;;;;;5051535;28;20444;-69
2023/01/15 08:37:21;;;;;;;57.40;2.37;;;;;;;;;;5051567;28;20953;-69
2023/01/15 08:39:49;;;;;;;57.07;2.33;;;;;;;;;;5050950;28;20448;-69
2023/01/15 08:42:16;;;;;;;57.60;2.60;;;;;;;;;;5051555;28;20479;-69
2023/01/15 08:44:43;;;;;;;58.67;2.50;;;;;;;;;;5051426;28;20945;-69
2023/01/15 08:47:12;;;;;;;57.40;2.50;;;;;;;;;;5051582;28;20456;-69
2023/01/15 08:49:39;;;;;;;57.47;2.50;;;;;;;;;;5050489;28;20458;-69
2023/01/15 08:52:06;;;;;;;57.23;2.47;;;;;;;;;;5051175;28;20572;-69
2023/01/15 08:54:33;;;;;;;59.17;4.17;;;;;;;;;;5051486;28;20463;-69
2023/01/15 08:57:00;;;;;;;57.80;2.60;;;;;;;;;;5051304;28;20975;-69
2023/01/15 08:59:28;;;;;;;57.35;2.42;;;;;;;;;;5050735;28;20456;-69
2023/01/15 09:01:55;;;;;;;57.80;2.80;;;;;;;;;;5051257;28;20232;-69
2023/01/15 09:04:23;;;;;;;57.20;2.57;;;;;;;;;;5051268;28;20448;-69
2023/01/15 09:06:50;;;;;;;57.50;2.50;;;;;;;;;;5051239;28;20452;-69
2023/01/15 09:09:17;;;;;;;57.50;2.60;;;;;;;;;;5050651;28;20456;-69
2023/01/15 09:11:45;;;;;;;60.53;2.60;;;;;;;;;;5054381;28;20960;-69
2023/01/15 09:14:13;;;;;;;57.70;2.43;;;;;;;;;;5054972;28;20710;-69
2023/01/15 09:16:40;;;;;;;58.53;2.70;;;;;;;;;;5055015;28;20448;-69
2023/01/15 09:19:07;;;;;;;57.60;2.85;;;;;;;;;;5054672;28;20547;-69
2023/01/15 09:21:36;;;;;;;57.60;2.90;;;;;;;;;;5054835;28;20212;-69
2023/01/15 09:24:03;;;;;;;57.60;2.70;;;;;;;;;;5054809;28;20459;-69
2023/01/15 09:26:31;;;;;;;58.15;2.80;;;;;;;;;;5054873;28;20448;-69
2023/01/15 09:28:59;;;;;;;57.60;2.30;;;;;;;;;;5054316;28;20216;-69
2023/01/15 09:31:26;;;;;;;58.60;2.70;;;;;;;;;;5054602;28;20444;-69
2023/01/15 09:33:53;;;;;;;57.53;2.30;;;;;;;;;;5054944;28;20495;-69
2023/01/15 09:36:23;;;;;;;57.67;2.73;;;;;;;;;;5054888;28;20220;-69
2023/01/15 09:38:51;;;;;;;57.33;2.90;;;;;;;;;;5053867;28;20452;-69
2023/01/15 09:44:11;;;;;;;57.35;2.70;;;;;;;;;;5055079;28;20516;-69
2023/01/15 09:46:40;;;;;;;57.37;2.93;;;;;;;;;;5054617;28;20243;-69
2023/01/15 09:49:13;;;;;;;59.00;2.60;;;;;;;;;;5053770;28;20858;-69
2023/01/15 09:51:47;;;;;;;58.00;3.10;;;;;;;;;;5054679;28;20459;-69
2023/01/15 09:54:32;;;;;;;57.90;2.80;;;;;;;;;;5054238;28;20484;-67
2023/01/15 09:57:01;;;;;;;57.03;2.50;;;;;;;;;;5054190;28;20448;-69
2023/01/15 09:59:31;;;;;;;57.57;2.43;;;;;;;;;;5053471;28;20450;-69
2023/01/15 10:01:59;;;;;;;57.08;2.30;;;;;;;;;;5054057;28;20460;-69
2023/01/15 10:04:32;;;;;;;56.87;2.60;;;;;;;;;;5054218;28;20224;-69
2023/01/15 10:07:04;;;;;;;60.17;2.27;;;;;;;;;;5054053;28;20444;-69
2023/01/15 10:09:36;;;;;;;57.07;2.40;;;;;;;;;;5053654;28;20513;-69
2023/01/15 10:14:55;;;;;;;57.57;2.60;;;;;;;;;;5054060;28;20416;-69
2023/01/15 10:17:25;;;;;;;56.83;2.60;;;;;;;;;;5053805;28;20891;-69
2023/01/15 10:19:53;;;;;;;57.57;2.60;;;;;;;;;;5053447;28;20210;-69
2023/01/15 10:22:28;;;;;;;56.88;2.33;;;;;;;;;;5053365;28;20468;-69
2023/01/15 10:24:56;;;;;;;56.77;2.60;;;;;;;;;;5053768;28;20218;-69
2023/01/15 10:27:26;;;;;;;57.40;2.50;;;;;;;;;;5053859;28;20455;-69
2023/01/15 10:29:55;;;;;;;57.13;2.50;;;;;;;;;;5052760;28;20721;-69
2023/01/15 10:32:24;;;;;;;57.90;2.70;;;;;;;;;;5053444;28;20469;-69
2023/01/15 10:35:12;;;;;;;57.15;2.40;;;;;;;;;;5063118;28;20447;-69
2023/01/15 10:37:42;;;;;;;57.07;2.40;;;;;;;;;;5073642;28;20213;-69
2023/01/15 10:40:33;;;;;;;57.97;2.53;;;;;;;;;;5072444;28;20444;-69
2023/01/15 10:43:07;;;;;;;57.70;2.40;;;;;;;;;;5073423;28;20513;-69
2023/01/15 10:45:37;;;;;;;57.53;2.40;;;;;;;;;;5073360;28;20939;-69
2023/01/15 10:48:07;;;;;;;59.40;2.50;;;;;;;;;;5073259;28;20935;-69
2023/01/15 10:50:35;;;;;;;57.17;2.70;;;;;;;;;;5072546;28;20440;-69
2023/01/15 10:53:06;;;;;;;57.95;2.40;;;;;;;;;;5073386;28;20225;-68
2023/01/15 10:55:35;;;;;;;57.70;2.47;;;;;;;;;;5073436;28;20771;-70
2023/01/15 10:58:07;;;;;;;57.33;2.40;;;;;;;;;;5073113;28;20205;-70
2023/01/15 11:00:35;;;;;;;56.92;2.40;;;;;;;;;;5072309;28;20205;-70
2023/01/15 11:03:05;;;;;;;57.28;2.50;;;;;;;;;;5072931;28;20221;-69
2023/01/15 11:05:33;;;;;;;57.47;2.72;;;;;;;;;;5073475;28;20231;-70
2023/01/15 11:08:00;;;;;;;57.17;2.50;;;;;;;;;;5073011;28;20205;-70
2023/01/15 11:10:27;;;;;;;56.97;2.70;;;;;;;;;;5072287;28;20209;-70
2023/01/15 11:21:18;;;;;;;57.60;2.80;;;;;;;;;;5072904;28;20200;-70
2023/01/15 11:23:46;;;;;;;57.80;2.47;;;;;;;;;;5072603;28;20220;-69
2023/01/15 11:26:18;;;;;;;57.67;2.95;;;;;;;;;;5072482;28;20217;-69
2023/01/15 11:28:46;;;;;;;57.47;2.60;;;;;;;;;;5071958;28;20267;-69
2023/01/15 11:31:16;;;;;;;57.47;2.70;;;;;;;;;;5072446;28;20697;-69
2023/01/15 11:33:45;;;;;;;57.78;2.55;;;;;;;;;;5071642;28;20689;-70
2023/01/15 11:36:20;;;;;;;57.75;2.80;;;;;;;;;;5072431;28;20208;-70
2023/01/15 11:38:48;;;;;;;57.55;2.75;;;;;;;;;;5071820;28;20269;-70
2023/01/15 11:41:24;;;;;;;58.10;2.60;;;;;;;;;;5072415;28;20220;-70
2023/01/15 11:52:11;;;;;;;58.20;3.10;;;;;;;;;;5071908;28;20600;-70
2023/01/15 11:54:39;;;;;;;58.80;3.20;;;;;;;;;;5072085;28;20232;-70
2023/01/15 11:57:06;;;;;;;63.45;2.83;;;;;;;;;;5062948;28;20202;-70
2023/01/15 11:59:34;;;;;;;57.70;2.55;;;;;;;;;;5052301;28;20194;-69
2023/01/15 12:02:04;;;;;;;58.40;2.92;;;;;;;;;;5052208;28;20229;-70
2023/01/15 12:04:35;;;;;;;58.10;2.70;;;;;;;;;;5052139;28;20205;-70
2023/01/15 12:07:03;;;;;;;58.15;3.00;;;;;;;;;;5052442;28;20209;-70
2023/01/15 12:09:36;;;;;;;58.10;2.85;;;;;;;;;;5051299;28;20589;-70
2023/01/15 12:12:08;;;;;;;58.00;2.75;;;;;;;;;;5051631;28;20226;-70
2023/01/15 12:14:47;;;;;;;57.63;2.88;;;;;;;;;;5052137;28;20230;-70
2023/01/15 12:17:26;;;;;;;58.80;3.00;;;;;;;;;;5052435;28;20201;-70
2023/01/15 12:19:56;;;;;;;57.65;2.50;;;;;;;;;;5051567;28;20211;-70
2023/01/15 12:22:29;;;;;;;58.17;2.88;;;;;;;;;;5052249;28;20240;-69
2023/01/15 12:25:11;;;;;;;58.20;2.60;;;;;;;;;;5052540;28;20209;-69
2023/01/15 12:27:53;;;;;;;57.58;3.13;;;;;;;;;;5052924;28;20206;-69
2023/01/15 12:30:24;;;;;;;57.67;2.63;;;;;;;;;;5050290;28;20225;-69
2023/01/15 12:32:55;;;;;;;57.58;2.90;;;;;;;;;;5052890;28;20252;-69
2023/01/15 12:35:27;;;;;;;57.78;2.88;;;;;;;;;;5052773;28;20265;-70
2023/01/15 12:37:57;;;;;;;57.90;2.60;;;;;;;;;;5052799;28;20216;-70
2023/01/15 12:40:26;;;;;;;58.55;2.67;;;;;;;;;;5051844;28;20205;-70
2023/01/15 12:45:42;;;;;;;58.00;3.20;;;;;;;;;;5055487;28;20201;-70
2023/01/15 12:48:15;;;;;;;58.45;3.22;;;;;;;;;;5055862;28;20335;-69
2023/01/15 12:50:44;;;;;;;57.15;2.70;;;;;;;;;;5054934;28;20587;-70
2023/01/15 12:53:15;;;;;;;57.42;2.88;;;;;;;;;;5055462;28;20303;-69
2023/01/15 12:55:47;;;;;;;57.83;2.75;;;;;;;;;;5055443;28;20216;-69
2023/01/15 12:58:21;;;;;;;57.75;2.60;;;;;;;;;;5055401;28;20205;-69
2023/01/15 13:00:49;;;;;;;58.38;2.80;;;;;;;;;;5054754;28;20263;-69
2023/01/15 13:03:21;;;;;;;57.90;2.80;;;;;;;;;;5055234;28;20256;-69
2023/01/15 13:05:51;;;;;;;57.13;2.40;;;;;;;;;;5055206;28;20646;-69
2023/01/15 13:08:22;;;;;;;57.60;2.75;;;;;;;;;;5055005;28;20224;-69
2023/01/15 13:10:50;;;;;;;57.85;2.83;;;;;;;;;;5054927;28;20205;-70
2023/01/15 13:13:18;;;;;;;57.77;3.20;;;;;;;;;;5054945;28;20659;-70
2023/01/15 13:15:52;;;;;;;57.35;2.63;;;;;;;;;;5054875;28;20448;-69
2023/01/15 13:18:22;;;;;;;58.13;2.97;;;;;;;;;;5054937;28;20210;-70
2023/01/15 13:20:50;;;;;;;58.00;3.10;;;;;;;;;;5054423;28;20567;-69
2023/01/15 13:23:24;;;;;;;57.80;3.10;;;;;;;;;;5054910;28;20583;-70
2023/01/15 13:25:58;;;;;;;57.90;2.70;;;;;;;;;;5055219;28;21110;-70
2023/01/15 13:28:36;;;;;;;58.83;3.13;;;;;;;;;;5054801;28;20212;-70
2023/01/15 13:31:08;;;;;;;58.05;3.10;;;;;;;;;;5054656;28;20209;-70
2023/01/15 13:33:40;;;;;;;59.45;3.10;;;;;;;;;;5054652;28;20233;-69
2023/01/15 13:36:11;;;;;;;57.57;3.07;;;;;;;;;;5054649;28;20635;-70
2023/01/15 13:38:41;;;;;;;58.38;3.30;;;;;;;;;;5053926;28;20539;-70
2023/01/15 13:41:09;;;;;;;58.00;2.75;;;;;;;;;;5054500;28;20206;-70
2023/01/15 13:43:38;;;;;;;57.97;2.77;;;;;;;;;;5054395;28;20739;-70
2023/01/15 13:46:06;;;;;;;58.00;3.20;;;;;;;;;;5054759;28;21016;-70
2023/01/15 13:48:35;;;;;;;58.60;3.28;;;;;;;;;;5054029;28;20466;-70
2023/01/15 13:51:04;;;;;;;57.27;2.70;;;;;;;;;;5054494;28;20228;-70
2023/01/15 13:53:33;;;;;;;57.60;2.30;;;;;;;;;;5054160;28;20464;-70
2023/01/15 13:56:04;;;;;;;58.20;2.80;;;;;;;;;;5053353;28;20206;-70
2023/01/15 13:58:32;;;;;;;57.90;2.80;;;;;;;;;;5053977;28;20990;-70
2023/01/15 14:01:03;;;;;;;57.50;2.50;;;;;;;;;;5054365;28;20205;-70
2023/01/15 14:03:31;;;;;;;57.90;3.03;;;;;;;;;;5054218;28;20221;-70
2023/01/15 14:05:59;;;;;;;57.70;2.90;;;;;;;;;;5054179;28;20455;-70
2023/01/15 14:08:28;;;;;;;57.93;2.80;;;;;;;;;;5053981;28;20455;-70
2023/01/15 14:10:56;;;;;;;59.37;3.13;;;;;;;;;;5053745;28;20798;-70
2023/01/15 14:13:45;;;;;;;57.80;2.60;;;;;;;;;;5053997;28;20483;-70
2023/01/15 14:16:16;;;;;;;59.67;3.60;;;;;;;;;;5054125;28;20937;-70
2023/01/15 14:19:04;;;;;;;58.60;3.07;;;;;;;;;;5053118;28;20452;-70
2023/01/15 14:21:36;;;;;;;59.30;3.10;;;;;;;;;;5053889;28;20456;-70
2023/01/15 14:24:13;;;;;;;58.43;2.73;;;;;;;;;;5053630;28;20937;-70
2023/01/15 14:26:46;;;;;;;59.37;3.30;;;;;;;;;;5053756;28;20452;-70
2023/01/15 14:29:30;;;;;;;57.60;2.90;;;;;;;;;;5053038;28;20452;-70
2023/01/15 14:32:04;;;;;;;58.00;3.00;;;;;;;;;;5053754;28;20471;-70
2023/01/15 14:34:32;;;;;;;61.97;3.43;;;;;;;;;;5053642;28;20488;-70
2023/01/15 14:37:00;;;;;;;58.97;3.10;;;;;;;;;;5053588;28;20455;-70
2023/01/15 14:39:31;;;;;;;59.87;4.00;;;;;;;;;;5052637;28;20539;-70
2023/01/15 14:44:47;;;;;;;60.57;2.63;;;;;;;;;;5053603;28;20420;-70
2023/01/15 14:47:25;;;;;;;58.93;2.87;;;;;;;;;;5053409;28;20455;-70
2023/01/15 14:50:00;;;;;;;57.50;2.80;;;;;;;;;;5052681;28;20474;-70
2023/01/15 14:52:28;;;;;;;58.20;3.03;;;;;;;;;;5053064;28;20477;-71
2023/01/15 14:54:57;;;;;;;59.10;2.83;;;;;;;;;;5053233;28;20514;-70
2023/01/15 14:57:24;;;;;;;58.20;2.70;;;;;;;;;;5053100;28;20454;-71
2023/01/15 14:59:54;;;;;;;58.27;2.80;;;;;;;;;;5052380;28;20448;-70
2023/01/15 15:02:24;;;;;;;57.37;2.80;;;;;;;;;;5052931;28;21023;-70
2023/01/15 15:04:52;;;;;;;58.17;2.43;;;;;;;;;;5052780;28;20456;-71
2023/01/15 15:07:23;;;;;;;57.80;2.40;;;;;;;;;;5052475;28;20450;-70
2023/01/15 15:09:53;;;;;;;58.77;2.93;;;;;;;;;;5051963;28;20460;-70
2023/01/15 15:12:27;;;;;;;58.17;2.60;;;;;;;;;;5052960;28;20589;-70
2023/01/15 15:14:58;;;;;;;58.33;2.70;;;;;;;;;;5052847;28;20476;-70
2023/01/15 15:17:31;;;;;;;59.90;2.93;;;;;;;;;;5052611;28;20456;-70
2023/01/15 15:20:03;;;;;;;57.70;2.70;;;;;;;;;;5051980;28;20518;-70
2023/01/15 15:22:31;;;;;;;59.40;3.10;;;;;;;;;;5052698;28;20475;-70
2023/01/15 15:25:02;;;;;;;59.27;3.20;;;;;;;;;;5052511;28;20518;-70
2023/01/15 15:27:30;;;;;;;58.13;2.90;;;;;;;;;;5052583;28;20455;-70
2023/01/15 15:30:03;;;;;;;57.77;2.80;;;;;;;;;;5051507;28;20951;-70
2023/01/15 15:32:31;;;;;;;58.80;2.80;;;;;;;;;;5052567;28;20483;-70
2023/01/15 15:34:58;;;;;;;59.40;3.03;;;;;;;;;;5052367;28;20492;-70
2023/01/15 15:37:27;;;;;;;59.47;3.20;;;;;;;;;;5052346;28;20453;-70
2023/01/15 15:39:57;;;;;;;57.07;2.50;;;;;;;;;;5051388;28;20556;-70
2023/01/15 15:50:56;;;;;;;59.95;3.30;;;;;;;;;;5051812;28;20569;-70
2023/01/15 15:53:23;;;;;;;58.10;2.63;;;;;;;;;;5051918;28;20250;-70